createdAt,value
2022-11-23T03:32:48.664Z,5.72
2022-11-23T03:45:15.986Z,6.18
2022-11-23T04:01:58.933Z,6.18
2022-11-23T05:40:30.692Z,7.20
2022-11-23T05:43:00.677Z,6.28
2022-11-23T05:45:28.725Z,6.20
2022-11-23T05:48:01.953Z,9.63
2022-11-23T05:50:50.028Z,7.25
2022-11-23T05:53:25.317Z,7.13
2022-11-23T05:56:01.536Z,7.13
2022-11-23T05:58:34.038Z,6.90
2022-11-23T06:01:02.518Z,7.10
2022-11-23T06:04:47.320Z,5.95
2022-11-23T06:07:18.924Z,5.93
2022-11-23T06:10:05.278Z,7.80
2022-11-23T06:12:35.383Z,5.97
2022-11-23T06:15:06.945Z,5.05
2022-11-23T06:17:35.964Z,5.60
2022-11-23T06:20:07.235Z,7.10
2022-11-23T06:22:37.355Z,5.70
2022-11-23T06:25:09.612Z,5.03
2022-11-23T06:31:25.545Z,5.55
2022-11-23T06:42:38.407Z,5.57
2022-11-23T06:45:12.040Z,5.13
2022-11-23T06:47:42.212Z,5.60
2022-11-23T06:50:11.499Z,5.15
2022-11-23T06:52:42.187Z,5.40
2022-11-23T06:55:12.050Z,4.90
2022-11-23T06:58:05.411Z,6.47
2022-11-23T07:00:38.277Z,4.72
2022-11-23T07:03:30.376Z,4.90
2022-11-23T07:06:11.154Z,5.05
2022-11-23T07:08:45.245Z,5.88
2022-11-23T07:11:43.943Z,7.20
2022-11-23T07:14:12.529Z,5.28
2022-11-23T07:16:47.613Z,5.60
2022-11-23T07:19:28.037Z,7.07
2022-11-23T07:22:01.335Z,7.93
2022-11-23T07:25:06.633Z,7.93
2022-11-23T07:34:45.662Z,9.35
2022-11-23T07:37:49.660Z,8.98
2022-11-23T07:40:21.464Z,11.50
2022-11-23T09:08:48.094Z,8.40
2022-11-23T09:11:17.631Z,9.38
2022-11-23T09:13:45.056Z,8.75
2022-11-23T09:16:17.501Z,8.30
2022-11-23T09:18:45.172Z,8.20
2022-11-23T09:21:12.880Z,8.82
2022-11-23T09:23:40.320Z,8.70
2022-11-23T09:26:07.896Z,8.93
2022-11-23T09:28:36.475Z,9.20
2022-11-23T09:31:06.692Z,9.30
2022-11-23T09:33:37.594Z,9.20
2022-11-23T09:36:05.575Z,8.73
2022-11-23T09:38:55.729Z,9.40
2022-11-23T09:41:51.423Z,8.98
2022-11-23T09:44:32.823Z,9.27
2022-11-23T09:47:37.395Z,9.43
2022-11-23T09:50:09.280Z,8.80
2022-11-23T09:52:40.598Z,7.70
2022-11-23T09:55:17.015Z,8.15
2022-11-23T09:57:46.780Z,8.30
2022-11-23T10:00:21.418Z,9.25
2022-11-23T10:02:49.567Z,8.10
2022-11-23T10:05:21.281Z,8.98
2022-11-23T10:08:33.296Z,8.07
2022-11-23T10:11:35.737Z,8.32
2022-11-23T10:14:11.807Z,7.95
2022-11-23T10:16:58.664Z,7.05
2022-11-23T10:19:44.637Z,6.35
2022-11-23T10:22:51.396Z,6.25
2022-11-23T10:27:51.112Z,6.65
2022-11-23T10:30:20.175Z,6.47
2022-11-23T10:32:59.662Z,7.20
2022-11-23T10:35:34.100Z,6.03
2022-11-23T10:38:19.700Z,6.17
2022-11-23T10:43:26.034Z,6.03
2022-11-23T10:46:22.741Z,6.82
2022-11-23T10:48:52.126Z,6.70
2022-11-23T10:51:28.852Z,6.22
2022-11-23T10:54:05.391Z,5.75
2022-11-23T10:56:34.536Z,5.40
2022-11-23T10:59:02.032Z,4.60
2022-11-23T11:01:30.421Z,5.70
2022-11-23T11:04:04.457Z,4.63
2022-11-23T11:06:34.776Z,7.65
2022-11-23T11:09:07.430Z,4.93
2022-11-23T11:11:40.499Z,6.20
2022-11-23T11:14:17.930Z,4.38
2022-11-23T11:16:52.746Z,5.80
2022-11-23T11:19:34.677Z,5.32
2022-11-23T11:22:27.781Z,5.40
2022-11-23T11:24:55.669Z,5.25
2022-11-23T11:27:26.395Z,5.50
2022-11-23T11:29:56.734Z,5.75
2022-11-23T11:32:26.873Z,5.85
2022-11-23T11:35:20.438Z,5.20
2022-11-23T11:37:51.877Z,4.88
2022-11-23T11:40:32.226Z,4.75
2022-11-23T11:43:37.937Z,5.53
2022-11-23T11:46:31.635Z,6.45
2022-11-23T11:49:09.019Z,5.22
2022-11-23T11:52:02.511Z,5.70
2022-11-23T11:54:56.367Z,5.70
2022-11-23T11:57:40.320Z,6.00
2022-11-23T12:00:14.781Z,7.95
2022-11-23T12:02:54.213Z,6.70
2022-11-23T12:05:30.718Z,7.00
2022-11-23T12:08:07.218Z,7.22
2022-11-23T12:10:52.067Z,7.50
2022-11-23T12:13:22.948Z,6.47
2022-11-23T12:16:17.462Z,6.97
2022-11-23T12:18:50.985Z,6.55
2022-11-23T12:21:30.386Z,7.70
2022-11-23T12:24:28.039Z,8.10
2022-11-23T12:27:16.430Z,7.93
2022-11-23T12:30:19.197Z,7.70
2022-11-23T12:33:01.505Z,7.80
2022-11-23T12:36:05.841Z,8.60
2022-11-23T12:38:54.532Z,8.32
2022-11-23T12:41:32.457Z,8.48
2022-11-23T12:44:37.786Z,8.48
2022-11-23T12:47:20.223Z,8.85
2022-11-23T12:50:11.390Z,8.30
2022-11-23T12:52:57.244Z,10.13
2022-11-23T12:58:12.040Z,10.40
2022-11-23T13:00:49.026Z,9.65
2022-11-23T13:03:25.323Z,9.90
2022-11-23T13:06:11.569Z,10.75
2022-11-23T13:08:57.645Z,13.07
2022-11-23T13:11:45.903Z,14.10
2022-11-23T13:14:23.337Z,13.20
2022-11-23T13:17:26.125Z,16.27
2022-11-23T13:20:25.622Z,14.50
2022-11-23T13:22:55.088Z,14.52
2022-11-23T13:25:29.263Z,15.45
2022-11-23T13:28:24.771Z,15.43
2022-11-23T13:31:15.757Z,15.68
2022-11-23T13:33:48.831Z,17.77
2022-11-23T13:37:11.808Z,16.52
2022-11-23T13:39:51.924Z,17.60
2022-11-23T13:42:20.269Z,17.02
2022-11-23T13:44:47.741Z,18.75
2022-11-23T13:47:16.221Z,18.65
2022-11-23T13:49:45.092Z,18.67
2022-11-23T13:52:21.678Z,17.85
2022-11-23T13:55:10.120Z,18.70
2022-11-23T13:57:43.452Z,19.05
2022-11-23T14:00:48.425Z,18.73
2022-11-23T14:03:48.084Z,18.75
2022-11-23T14:06:37.033Z,17.77
2022-11-23T14:09:23.775Z,17.83
2022-11-23T14:12:01.203Z,17.88
2022-11-23T14:14:42.988Z,16.90
2022-11-23T14:17:29.791Z,17.60
2022-11-23T14:20:15.449Z,17.65
2022-11-23T14:22:57.566Z,17.25
2022-11-23T14:25:45.446Z,17.90
2022-11-23T14:28:48.221Z,18.27
2022-11-23T14:31:17.399Z,17.90
2022-11-23T14:33:55.807Z,18.73
2022-11-23T14:36:35.057Z,18.17
2022-11-23T14:39:48.086Z,17.63
2022-11-23T14:42:18.660Z,17.75
2022-11-23T14:44:48.019Z,18.83
2022-11-23T14:47:26.298Z,16.75
2022-11-23T14:49:54.321Z,17.50
2022-11-23T14:52:26.386Z,18.60
2022-11-23T14:54:57.383Z,17.60
2022-11-23T14:57:37.377Z,18.15
2022-11-23T15:00:11.525Z,19.00
2022-11-23T15:02:41.389Z,20.67
2022-11-23T15:05:26.824Z,19.55
2022-11-23T15:08:26.682Z,20.27
2022-11-23T15:11:09.709Z,19.60
2022-11-23T15:13:50.636Z,21.05
2022-11-23T15:16:20.138Z,21.73
2022-11-23T15:18:48.481Z,21.65
2022-11-23T15:21:27.533Z,22.35
2022-11-23T15:23:58.056Z,21.67
2022-11-23T15:29:33.331Z,22.23
2022-11-23T15:34:51.688Z,21.85
2022-11-23T15:37:19.326Z,23.70
2022-11-23T15:39:47.976Z,24.48
2022-11-23T15:42:21.727Z,24.98
2022-11-23T15:44:52.630Z,23.38
2022-11-23T15:47:41.854Z,23.30
2022-11-23T15:50:10.327Z,23.77
2022-11-23T15:52:42.147Z,24.25
2022-11-23T15:55:15.692Z,24.15
2022-11-23T15:57:53.008Z,24.65
2022-11-23T16:00:26.080Z,24.67
2022-11-23T16:13:47.709Z,25.17
2022-11-23T16:25:31.122Z,22.48
2022-11-23T16:33:29.986Z,25.67
2022-11-23T16:36:15.513Z,22.30
2022-11-23T16:39:03.954Z,21.67
2022-11-23T16:41:57.637Z,27.90
2022-11-23T16:45:26.095Z,27.17
2022-11-23T16:48:54.971Z,26.50
2022-11-23T16:59:07.185Z,25.70
2022-11-23T17:08:34.930Z,27.42
2022-11-23T17:25:13.054Z,25.48
2022-11-23T17:28:05.670Z,25.88
2022-11-23T17:31:42.080Z,27.30
2022-11-23T17:53:48.972Z,19.75
2022-11-23T18:02:42.063Z,18.38
2022-11-23T18:05:36.597Z,17.63
2022-11-23T18:08:04.719Z,19.77
2022-11-23T18:10:32.578Z,19.08
2022-11-23T18:13:00.300Z,21.08
2022-11-23T18:15:30.578Z,20.83
2022-11-23T18:18:10.021Z,18.65
2022-11-23T18:20:38.885Z,21.27
2022-11-23T18:23:07.603Z,22.52
2022-11-23T18:25:37.318Z,21.67
2022-11-23T18:28:05.267Z,22.95
2022-11-23T18:30:35.312Z,21.60
2022-11-23T18:33:03.895Z,24.25
2022-11-23T18:35:32.159Z,23.23
2022-11-23T18:38:00.061Z,31.33
2022-11-23T18:40:28.200Z,65.00
2022-11-23T18:42:58.728Z,35.05
2022-11-23T18:45:26.417Z,35.40
2022-11-23T18:47:55.091Z,30.13
2022-11-23T18:50:22.851Z,35.20
2022-11-23T18:52:51.200Z,32.95
2022-11-23T18:55:18.975Z,34.53
2022-11-23T18:57:46.618Z,31.00
2022-11-23T19:00:15.996Z,34.25
2022-11-23T19:02:43.636Z,29.50
2022-11-23T19:05:12.397Z,32.60
2022-11-23T19:07:40.686Z,29.33
2022-11-23T19:10:09.236Z,34.28
2022-11-23T19:12:36.818Z,30.20
2022-11-23T19:15:06.957Z,32.67
2022-11-23T19:17:34.914Z,31.38
2022-11-23T19:20:11.620Z,32.47
2022-11-23T19:22:39.316Z,34.83
2022-11-23T19:25:07.484Z,29.65
2022-11-23T19:27:38.514Z,29.27
2022-11-23T19:30:16.786Z,26.48
2022-11-23T19:32:46.973Z,26.95
2022-11-23T19:35:15.250Z,28.10
2022-11-23T19:37:43.060Z,26.98
2022-11-23T19:40:14.981Z,29.52
2022-11-23T19:42:58.656Z,34.05
2022-11-23T19:45:26.429Z,36.83
2022-11-23T19:47:56.412Z,39.65
2022-11-23T19:53:13.108Z,32.08
2022-11-23T19:55:40.996Z,32.97
2022-11-23T19:58:08.660Z,26.85
2022-11-23T20:00:37.113Z,27.98
2022-11-23T20:03:04.712Z,30.65
2022-11-23T20:05:32.496Z,28.23
2022-11-23T20:08:02.398Z,26.48
2022-11-23T20:10:30.003Z,29.70
2022-11-23T20:12:57.370Z,27.52
2022-11-23T20:15:24.955Z,26.35
2022-11-23T20:17:52.376Z,27.95
2022-11-23T20:20:20.021Z,28.95
2022-11-23T20:22:47.379Z,34.38
2022-11-23T20:25:15.796Z,32.00
2022-11-23T20:27:43.284Z,29.75
2022-11-23T20:30:11.242Z,35.22
2022-11-23T20:32:40.002Z,33.45
2022-11-23T20:35:08.014Z,30.92
2022-11-23T20:37:35.443Z,36.40
2022-11-23T20:40:02.993Z,35.92
2022-11-23T20:42:30.991Z,33.45
2022-11-23T20:44:58.506Z,33.20
2022-11-23T20:47:28.212Z,30.20
2022-11-23T20:49:55.793Z,25.17
2022-11-23T20:52:23.226Z,25.02
2022-11-23T20:54:51.193Z,26.85
2022-11-23T20:57:19.078Z,24.05
2022-11-23T20:59:46.563Z,23.38
2022-11-23T21:02:14.521Z,24.00
2022-11-23T21:04:42.053Z,23.02
2022-11-23T21:07:12.930Z,20.20
2022-11-23T21:09:40.813Z,17.38
2022-11-23T21:12:27.530Z,17.90
2022-11-23T21:14:55.032Z,17.83
2022-11-23T21:17:22.505Z,21.30
2022-11-23T21:19:50.229Z,18.17
2022-11-23T21:22:18.818Z,20.13
2022-11-23T21:24:46.232Z,18.35
2022-11-23T21:27:13.768Z,21.55
2022-11-23T21:29:41.435Z,15.90
2022-11-23T21:32:08.930Z,16.27
2022-11-23T21:34:36.819Z,16.33
2022-11-23T21:37:04.624Z,15.80
2022-11-23T21:39:33.207Z,16.60
2022-11-23T21:42:00.766Z,14.50
2022-11-23T21:44:28.284Z,15.60
2022-11-23T21:46:56.222Z,15.07
2022-11-23T21:49:23.852Z,13.80
2022-11-23T21:51:52.513Z,17.60
2022-11-23T22:07:04.489Z,15.85
2022-11-23T22:09:35.473Z,17.13
2022-11-23T22:12:04.040Z,16.33
2022-11-23T22:14:32.039Z,21.73
2022-11-23T22:17:25.297Z,23.67
2022-11-23T22:19:52.830Z,17.38
2022-11-23T22:22:20.244Z,18.63
2022-11-23T22:24:47.643Z,15.45
2022-11-23T22:34:19.681Z,35.45
2022-11-23T22:36:51.257Z,51.65
2022-11-23T22:39:18.845Z,42.70
2022-11-23T22:41:46.522Z,96.85
2022-11-23T22:44:14.180Z,64.80
2022-11-23T22:46:44.246Z,63.88
2022-11-23T22:49:11.829Z,71.10
2022-11-23T22:51:39.491Z,64.38
2022-11-23T22:54:07.306Z,62.63
2022-11-23T22:56:39.213Z,65.13
2022-11-23T22:59:06.830Z,50.08
2022-11-23T23:01:34.404Z,42.17
2022-11-23T23:04:03.100Z,45.30
2022-11-23T23:06:36.097Z,43.13
2022-11-23T23:09:07.516Z,74.85
2022-11-23T23:11:35.901Z,68.38
2022-11-23T23:14:05.624Z,41.85
2022-11-23T23:16:33.690Z,32.72
2022-11-23T23:19:03.649Z,35.08
2022-11-23T23:21:31.350Z,30.27
2022-11-23T23:24:01.352Z,28.98
2022-11-23T23:26:30.470Z,35.20
2022-11-23T23:29:00.051Z,36.30
2022-11-23T23:31:30.182Z,32.72
2022-11-23T23:33:59.866Z,26.75
2022-11-23T23:36:27.504Z,28.40
2022-11-23T23:38:55.130Z,32.55
2022-11-23T23:41:22.789Z,34.10
2022-11-23T23:43:50.589Z,31.48
2022-11-23T23:46:18.292Z,27.15
2022-11-23T23:48:46.301Z,28.38
2022-11-23T23:51:17.100Z,24.52
2022-11-23T23:53:45.777Z,32.22
2022-11-23T23:56:22.559Z,30.73
2022-11-23T23:58:50.344Z,36.80
